Time;durP1;ratioP1;P1;durP2;ratioP2;P2;SDS_P1;SDS_P2;PMS_P1;PMS_P2;Temp;Humidity;BMP_temperature;BMP_pressure;BME280_temperature;BME280_humidity;BME280_pressure;Samples;Min_cycle;Max_cycle;Signal;HPM_P1;HPM_P2
2024/01/19 00:00:01;;;;;;;22.63;17.08;;;;;;;-2.78;100.00;101395.19;5032803;28;20029;-79
2024/01/19 00:02:26;;;;;;;23.48;16.55;;;;;;;-2.95;100.00;101382.50;5032707;28;20358;-78
2024/01/19 00:04:52;;;;;;;22.17;15.50;;;;;;;-2.86;100.00;101409.50;5031475;28;20038;-79
2024/01/19 00:07:17;;;;;;;21.50;16.25;;;;;;;-3.12;100.00;101379.13;5032770;28;20421;-79
2024/01/19 00:09:42;;;;;;;21.27;16.20;;;;;;;-3.02;100.00;101411.16;5032766;28;20025;-79
2024/01/19 00:12:08;;;;;;;20.20;15.88;;;;;;;-3.07;100.00;101408.59;5032488;28;20103;-77
2024/01/19 00:14:34;;;;;;;20.30;15.40;;;;;;;-3.22;100.00;101399.31;5032582;28;20492;-77
2024/01/19 00:16:59;;;;;;;24.95;16.17;;;;;;;-3.52;100.00;101347.06;5030877;28;20044;-79
2024/01/19 00:19:24;;;;;;;20.85;15.75;;;;;;;-3.26;100.00;101402.66;5032695;28;20030;-81
2024/01/19 00:21:50;;;;;;;19.33;15.00;;;;;;;-3.42;100.00;101385.78;5032486;28;20029;-78
2024/01/19 00:24:15;;;;;;;19.33;14.98;;;;;;;-3.51;100.00;101380.72;5032487;28;20025;-77
2024/01/19 00:26:43;;;;;;;21.45;15.32;;;;;;;-3.48;100.00;101405.97;5032532;28;20026;-77
2024/01/19 00:29:08;;;;;;;17.45;14.93;;;;;;;-3.46;100.00;101419.44;5032220;28;20038;-76
2024/01/19 00:31:35;;;;;;;22.05;16.00;;;;;;;-3.46;100.00;101427.00;5032434;28;20642;-79
2024/01/19 00:34:00;;;;;;;19.38;15.68;;;;;;;-3.51;100.00;101421.94;5032474;28;20061;-77
2024/01/19 00:36:25;;;;;;;21.05;15.85;;;;;;;-3.63;100.00;101406.75;5032151;28;20076;-77
2024/01/19 00:38:52;;;;;;;21.40;15.13;;;;;;;-3.53;100.00;101428.69;5032369;28;20021;-76
2024/01/19 00:41:17;;;;;;;20.00;14.85;;;;;;;-3.51;100.00;101437.09;5032246;28;20034;-79
2024/01/19 00:43:43;;;;;;;17.60;15.27;;;;;;;-3.48;100.00;101436.25;5032440;28;20017;-77
2024/01/19 00:46:08;;;;;;;20.65;14.80;;;;;;;-3.49;100.00;101440.47;5032721;28;20473;-79
2024/01/19 00:48:33;;;;;;;17.10;14.45;;;;;;;-3.44;100.00;101445.56;5032054;28;20469;-76
2024/01/19 00:50:59;;;;;;;22.58;14.93;;;;;;;-3.31;100.00;101454.00;5031984;28;20104;-76
2024/01/19 00:53:24;;;;;;;22.52;15.23;;;;;;;-3.21;100.00;101445.63;5035073;28;20030;-77
2024/01/19 00:55:49;;;;;;;19.52;14.70;;;;;;;-3.21;100.00;101455.72;5035914;28;20034;-78
2024/01/19 00:58:15;;;;;;;18.35;14.52;;;;;;;-3.19;100.00;101461.63;5036297;28;20052;-77
2024/01/19 01:00:41;;;;;;;18.67;14.27;;;;;;;-3.18;100.00;101438.91;5017704;28;20437;-78
2024/01/19 01:03:06;;;;;;;17.85;14.23;;;;;;;-3.01;100.00;101461.69;5036155;28;20393;-78
2024/01/19 01:05:32;;;;;;;17.75;13.55;;;;;;;-3.10;100.00;101427.97;5034614;28;20029;-78
2024/01/19 01:07:57;;;;;;;26.63;15.48;;;;;;;-2.80;100.00;101455.00;5035877;28;20041;-79
2024/01/19 01:10:22;;;;;;;20.00;13.75;;;;;;;-2.71;100.00;101442.38;5035537;28;20018;-77
2024/01/19 01:12:48;;;;;;;17.95;14.02;;;;;;;-2.85;100.00;101401.94;5035740;28;20018;-77
2024/01/19 01:15:13;;;;;;;16.75;13.02;;;;;;;-2.61;100.00;101439.84;5035697;28;20037;-77
2024/01/19 01:17:38;;;;;;;15.77;12.88;;;;;;;-2.60;100.00;101439.00;5035515;28;20128;-77
2024/01/19 01:20:04;;;;;;;18.05;12.73;;;;;;;-2.53;100.00;101477.81;5035493;28;20029;-77
2024/01/19 01:22:31;;;;;;;19.08;12.75;;;;;;;-2.58;100.00;101441.53;5035519;28;20080;-78
2024/01/19 01:24:56;;;;;;;16.10;12.48;;;;;;;-2.47;100.00;101441.53;5035633;28;20420;-77
2024/01/19 01:27:21;;;;;;;16.95;12.43;;;;;;;-2.28;100.00;101450.81;5035669;28;20021;-77
2024/01/19 01:29:47;;;;;;;17.63;12.45;;;;;;;-2.31;100.00;101448.28;5035444;28;20045;-78
2024/01/19 01:32:12;;;;;;;16.00;10.95;;;;;;;-2.48;100.00;101442.38;5035451;28;20080;-77
2024/01/19 01:34:37;;;;;;;14.38;10.02;;;;;;;-2.56;100.00;101457.53;5035589;28;20100;-79
2024/01/19 01:37:03;;;;;;;13.90;9.77;;;;;;;-2.77;100.00;101453.31;5033686;28;20037;-78
2024/01/19 01:39:28;;;;;;;13.63;10.00;;;;;;;-2.83;100.00;101458.38;5035225;28;20032;-77
2024/01/19 01:41:54;;;;;;;15.63;10.15;;;;;;;-3.10;100.00;101425.44;5035223;28;20036;-78
2024/01/19 01:44:19;;;;;;;15.40;10.45;;;;;;;-3.01;100.00;101451.59;5035149;28;20022;-78
2024/01/19 01:46:44;;;;;;;19.73;10.95;;;;;;;-3.30;100.00;101431.28;5035256;28;20028;-79
2024/01/19 01:49:10;;;;;;;13.55;9.88;;;;;;;-3.73;100.00;101384.00;5035100;28;20025;-79
2024/01/19 01:51:35;;;;;;;15.10;9.73;;;;;;;-3.26;100.00;101467.47;5035268;28;20029;-78
2024/01/19 01:54:04;;;;;;;15.15;9.88;;;;;;;-3.46;100.00;101443.00;5035133;28;20512;-78
2024/01/19 01:56:30;;;;;;;15.65;10.63;;;;;;;-4.13;100.00;101344.28;5034957;28;20024;-79
2024/01/19 01:58:55;;;;;;;15.77;10.35;;;;;;;-3.42;100.00;101470.81;5034889;28;20391;-77
2024/01/19 02:01:21;;;;;;;15.40;10.18;;;;;;;-3.63;100.00;101456.41;5034854;28;20018;-78
2024/01/19 02:03:47;;;;;;;15.35;9.98;;;;;;;-3.51;100.00;101477.50;5032631;28;20034;-79
2024/01/19 02:06:13;;;;;;;19.02;10.90;;;;;;;-3.67;100.00;101467.28;5035020;28;20025;-78
2024/01/19 02:08:41;;;;;;;16.25;10.93;;;;;;;-3.59;100.00;101478.28;5034698;28;20021;-78
2024/01/19 02:11:07;;;;;;;16.23;10.90;;;;;;;-3.55;100.00;101490.06;5034643;28;20053;-77
2024/01/19 02:13:32;;;;;;;15.93;10.55;;;;;;;-3.61;100.00;101501.00;5034644;28;20060;-77
2024/01/19 02:16:00;;;;;;;16.90;10.95;;;;;;;-3.86;100.00;101473.91;5034808;28;20026;-78
2024/01/19 02:18:26;;;;;;;17.17;10.65;;;;;;;-3.71;100.00;101509.34;5034476;28;20026;-77
2024/01/19 02:20:52;;;;;;;15.02;11.77;;;;;;;-3.96;100.00;101477.19;5034584;28;20025;-78
2024/01/19 02:23:19;;;;;;;16.48;11.05;;;;;;;-3.97;100.00;101478.03;5034657;28;20373;-79
2024/01/19 02:25:45;;;;;;;16.38;11.52;;;;;;;-3.79;100.00;101505.91;5034336;28;20457;-78
2024/01/19 02:28:10;;;;;;;17.25;11.30;;;;;;;-4.06;100.00;101467.03;5034627;28;20030;-79
2024/01/19 02:30:36;;;;;;;17.65;11.13;;;;;;;-4.06;100.00;101478.81;5034195;28;20124;-79
2024/01/19 02:33:03;;;;;;;16.50;10.52;;;;;;;-3.89;100.00;101517.63;5034223;28;20465;-77
2024/01/19 02:35:28;;;;;;;15.57;10.70;;;;;;;-4.10;100.00;101492.25;5034538;28;20416;-78
2024/01/19 02:37:53;;;;;;;19.40;11.55;;;;;;;-4.16;100.00;101485.47;5034339;28;20086;-78
2024/01/19 02:40:19;;;;;;;16.40;11.52;;;;;;;-3.94;100.00;101519.25;5033940;28;20029;-77
2024/01/19 02:42:44;;;;;;;15.52;10.95;;;;;;;-4.05;100.00;101508.25;5034122;28;20078;-78
2024/01/19 02:45:09;;;;;;;16.27;11.70;;;;;;;-3.94;100.00;101534.41;5016552;28;20036;-77
2024/01/19 02:47:35;;;;;;;15.18;11.43;;;;;;;-4.09;100.00;101507.38;5034012;28;20021;-78
2024/01/19 02:50:00;;;;;;;15.48;11.27;;;;;;;-4.05;100.00;101523.38;5034014;28;20032;-78
2024/01/19 02:52:26;;;;;;;15.60;10.80;;;;;;;-4.15;100.00;101501.44;5034076;28;20032;-78
2024/01/19 02:54:51;;;;;;;16.02;10.30;;;;;;;-4.00;100.00;101525.97;5033637;28;20465;-77
2024/01/19 02:57:16;;;;;;;15.70;10.20;;;;;;;-3.90;100.00;101545.38;5034061;28;20079;-77
2024/01/19 02:59:42;;;;;;;15.57;10.40;;;;;;;-4.01;100.00;101535.19;5033806;28;20052;-78
2024/01/19 03:02:07;;;;;;;15.20;10.30;;;;;;;-3.93;100.00;101553.78;5033763;28;20022;-78
2024/01/19 03:04:32;;;;;;;16.15;10.07;;;;;;;-4.08;100.00;101534.28;5033586;28;20458;-78
2024/01/19 03:06:58;;;;;;;12.63;9.73;;;;;;;-3.91;100.00;101549.56;5033526;28;20481;-78
2024/01/19 03:09:23;;;;;;;15.95;9.40;;;;;;;-4.01;100.00;101540.25;5033682;28;20105;-77
2024/01/19 03:11:48;;;;;;;17.73;9.82;;;;;;;-4.17;100.00;101513.19;5033656;28;20033;-77
2024/01/19 03:14:14;;;;;;;15.77;9.65;;;;;;;-4.10;100.00;101514.94;5033662;28;20030;-78
2024/01/19 03:16:43;;;;;;;14.25;9.68;;;;;;;-4.09;100.00;101514.13;5032626;28;20470;-78
2024/01/19 03:19:09;;;;;;;14.63;9.77;;;;;;;-4.03;100.00;101526.78;5033528;28;20029;-78
2024/01/19 03:21:34;;;;;;;15.77;11.23;;;;;;;-3.78;100.00;101558.06;5033548;28;20030;-78
2024/01/19 03:23:59;;;;;;;16.58;10.85;;;;;;;-3.81;100.00;101548.81;5033439;28;20021;-78
2024/01/19 03:26:25;;;;;;;16.75;11.30;;;;;;;-3.86;100.00;101534.47;5033453;28;20381;-78
2024/01/19 03:28:50;;;;;;;18.33;12.00;;;;;;;-3.87;100.00;101533.63;5033038;28;20077;-77
2024/01/19 03:31:15;;;;;;;20.75;13.18;;;;;;;-3.58;100.00;101563.28;5015711;28;20116;-78
2024/01/19 03:33:41;;;;;;;19.55;13.25;;;;;;;-3.76;100.00;101524.44;5033216;28;20021;-78
2024/01/19 03:36:06;;;;;;;20.33;12.82;;;;;;;-3.48;100.00;101559.97;5031709;28;20037;-78
2024/01/19 03:38:32;;;;;;;20.48;14.00;;;;;;;-3.53;100.00;101537.22;5033208;28;20021;-78
2024/01/19 03:40:58;;;;;;;19.80;13.93;;;;;;;-3.54;100.00;101522.94;5032967;28;20472;-78
2024/01/19 03:43:23;;;;;;;20.45;14.25;;;;;;;-3.52;100.00;101530.50;5033170;28;20503;-77
2024/01/19 03:45:49;;;;;;;21.45;15.02;;;;;;;-3.36;100.00;101556.66;5032019;28;20021;-78
2024/01/19 03:48:14;;;;;;;22.85;15.32;;;;;;;-3.43;100.00;101543.19;5032956;28;20025;-79
2024/01/19 03:50:40;;;;;;;22.38;15.73;;;;;;;-3.32;100.00;101560.91;5032618;28;20029;-78
2024/01/19 03:53:05;;;;;;;20.90;15.48;;;;;;;-3.31;100.00;101567.66;5032940;28;20025;-79
2024/01/19 03:55:30;;;;;;;24.25;16.38;;;;;;;-3.37;100.00;101565.06;5032857;28;20029;-79
2024/01/19 03:57:56;;;;;;;22.52;16.00;;;;;;;-3.52;100.00;101535.56;5032754;28;20100;-78
2024/01/19 04:00:21;;;;;;;22.40;16.75;;;;;;;-3.60;100.00;101527.94;5031027;28;20130;-77
2024/01/19 04:02:46;;;;;;;25.88;17.75;;;;;;;-3.33;100.00;101572.69;5032502;28;20025;-78
2024/01/19 04:05:11;;;;;;;23.42;17.55;;;;;;;-3.38;100.00;101564.25;5032284;28;20072;-78
2024/01/19 04:07:37;;;;;;;23.50;16.98;;;;;;;-3.40;100.00;101554.97;5032386;28;20521;-78
2024/01/19 04:10:03;;;;;;;24.35;17.63;;;;;;;-3.45;100.00;101542.31;5032526;28;20495;-78
2024/01/19 04:12:29;;;;;;;25.30;18.45;;;;;;;-3.54;100.00;101543.13;5032198;28;20033;-78
2024/01/19 04:14:55;;;;;;;24.65;18.50;;;;;;;-3.63;100.00;101532.97;5032335;28;20406;-78
2024/01/19 04:17:20;;;;;;;26.88;19.05;;;;;;;-3.51;100.00;101557.44;5032427;28;20053;-78
2024/01/19 04:19:46;;;;;;;25.33;18.92;;;;;;;-3.35;100.00;101586.13;5032197;28;20389;-78
2024/01/19 04:22:12;;;;;;;25.65;19.67;;;;;;;-3.49;100.00;101570.91;5030589;28;20046;-78
2024/01/19 04:24:37;;;;;;;26.58;19.75;;;;;;;-3.36;100.00;101589.50;5032339;28;20052;-78
2024/01/19 04:27:04;;;;;;;27.60;20.25;;;;;;;-3.39;100.00;101575.19;5033588;28;20527;-80
2024/01/19 04:29:29;;;;;;;26.30;20.38;;;;;;;-3.38;100.00;101564.25;5036275;28;20524;-80
2024/01/19 04:31:56;;;;;;;30.83;21.35;;;;;;;-3.36;100.00;101566.78;5036107;28;20029;-80
2024/01/19 04:34:21;;;;;;;28.95;21.92;;;;;;;-3.30;100.00;101579.44;5036267;28;20037;-80
2024/01/19 04:36:47;;;;;;;29.00;22.27;;;;;;;-3.21;100.00;101599.69;5036460;28;20029;-79
2024/01/19 04:39:12;;;;;;;30.50;21.25;;;;;;;-3.25;100.00;101603.03;5036228;28;20026;-79
2024/01/19 04:41:37;;;;;;;29.67;21.80;;;;;;;-3.31;100.00;101608.06;5036255;28;20032;-79
2024/01/19 04:44:03;;;;;;;26.77;21.65;;;;;;;-3.69;100.00;101542.16;5036462;28;20056;-79
2024/01/19 04:46:28;;;;;;;33.10;22.25;;;;;;;-3.24;100.00;101614.84;5036222;28;20021;-79
2024/01/19 04:48:54;;;;;;;28.17;21.50;;;;;;;-3.21;100.00;101628.34;5036494;28;20499;-80
2024/01/19 04:51:19;;;;;;;28.35;22.17;;;;;;;-3.22;100.00;101624.13;5036498;28;20112;-79
2024/01/19 04:53:44;;;;;;;27.00;20.90;;;;;;;-3.50;100.00;101591.94;5036295;28;20380;-79
2024/01/19 04:56:10;;;;;;;28.42;20.88;;;;;;;-3.26;100.00;101631.66;5035966;28;20021;-79
2024/01/19 04:58:37;;;;;;;29.40;20.65;;;;;;;-3.30;100.00;101633.31;5036218;28;20026;-79
2024/01/19 05:01:03;;;;;;;28.55;20.77;;;;;;;-3.25;100.00;101630.81;5035906;28;20033;-80
2024/01/19 05:03:30;;;;;;;28.40;20.73;;;;;;;-3.44;100.00;101591.13;5035784;28;20021;-80
2024/01/19 05:05:55;;;;;;;27.27;20.13;;;;;;;-3.57;100.00;101585.16;5035908;28;20096;-80
2024/01/19 05:08:20;;;;;;;25.55;20.98;;;;;;;-3.28;100.00;101626.59;5035944;28;20053;-78
2024/01/19 05:10:46;;;;;;;26.63;20.30;;;;;;;-3.29;100.00;101634.16;5035652;28;20029;-80
2024/01/19 05:13:11;;;;;;;28.40;20.38;;;;;;;-3.68;100.00;101582.53;5035656;28;20464;-80
2024/01/19 05:15:36;;;;;;;32.30;20.02;;;;;;;-3.34;100.00;101650.94;5035820;28;20033;-78
2024/01/19 05:18:02;;;;;;;26.98;19.85;;;;;;;-3.44;100.00;101629.88;5035891;28;20112;-80
2024/01/19 05:20:28;;;;;;;25.33;19.70;;;;;;;-3.60;100.00;101615.44;5035701;28;20026;-80
2024/01/19 05:22:54;;;;;;;25.38;20.10;;;;;;;-3.40;100.00;101651.78;5035708;28;20067;-79
2024/01/19 05:25:20;;;;;;;28.55;20.17;;;;;;;-3.37;100.00;101658.50;5035391;28;20034;-79
2024/01/19 05:27:47;;;;;;;29.38;20.52;;;;;;;-3.49;100.00;101641.59;5035590;28;20025;-79
2024/01/19 05:30:13;;;;;;;26.95;21.35;;;;;;;-3.56;100.00;101622.19;5034970;28;20045;-79
2024/01/19 05:32:39;;;;;;;28.83;20.17;;;;;;;-3.30;100.00;101668.69;5035599;28;20079;-79
2024/01/19 05:35:05;;;;;;;27.10;21.15;;;;;;;-3.19;100.00;101684.75;5035432;28;20404;-79
2024/01/19 05:37:30;;;;;;;25.65;21.08;;;;;;;-3.24;100.00;101673.78;5035348;28;20493;-80
2024/01/19 05:39:55;;;;;;;29.42;20.73;;;;;;;-3.08;100.00;101694.09;5033874;28;20468;-78
2024/01/19 05:42:21;;;;;;;27.90;21.55;;;;;;;-3.05;100.00;101699.16;5035171;28;20354;-78
2024/01/19 05:44:46;;;;;;;24.98;20.70;;;;;;;-2.94;100.00;101708.53;5035166;28;20461;-78
2024/01/19 05:47:11;;;;;;;27.15;20.88;;;;;;;-2.84;100.00;101713.63;5034997;28;20036;-78
2024/01/19 05:49:39;;;;;;;30.88;21.17;;;;;;;-2.82;100.00;101714.47;5035043;28;20049;-78
2024/01/19 05:52:05;;;;;;;27.63;21.65;;;;;;;-2.65;100.00;101730.59;5017131;28;20393;-78
2024/01/19 05:54:30;;;;;;;30.77;21.70;;;;;;;-2.61;100.00;101747.47;5034719;28;20033;-79
2024/01/19 05:56:55;;;;;;;27.88;21.33;;;;;;;-2.53;100.00;101761.00;5034709;28;20037;-80
2024/01/19 05:59:21;;;;;;;27.30;19.77;;;;;;;-2.49;100.00;101761.84;5033551;28;20081;-79
2024/01/19 06:01:46;;;;;;;30.25;19.42;;;;;;;-2.66;100.00;101734.78;5035137;28;20040;-80
2024/01/19 06:04:11;;;;;;;24.83;19.73;;;;;;;-2.46;100.00;101761.88;5034922;28;20057;-80
2024/01/19 06:06:37;;;;;;;27.13;19.05;;;;;;;-2.43;100.00;101760.22;5034794;28;20037;-79
2024/01/19 06:09:02;;;;;;;23.48;18.35;;;;;;;-3.14;100.00;101641.84;5034736;28;20029;-80
2024/01/19 06:11:28;;;;;;;23.17;18.70;;;;;;;-2.40;100.00;101772.88;5034095;28;20029;-80
2024/01/19 06:13:53;;;;;;;21.55;17.60;;;;;;;-2.51;100.00;101755.94;5034747;28;20037;-79
2024/01/19 06:16:18;;;;;;;22.23;17.88;;;;;;;-2.78;100.00;101729.66;5034909;28;20032;-79
2024/01/19 06:18:44;;;;;;;26.55;18.00;;;;;;;-2.48;100.00;101779.56;5034507;28;20358;-79
2024/01/19 06:21:10;;;;;;;21.30;17.02;;;;;;;-2.52;100.00;101774.50;5034638;28;20033;-80
2024/01/19 06:23:37;;;;;;;22.13;17.23;;;;;;;-2.61;100.00;101767.69;5034299;28;20029;-78
2024/01/19 06:26:08;;;;;;;22.50;16.20;;;;;;;-2.60;100.00;101782.88;5034007;28;20492;-78
2024/01/19 06:28:34;;;;;;;23.38;17.02;;;;;;;-2.69;100.00;101787.88;5034320;28;20175;-78
2024/01/19 06:30:59;;;;;;;24.27;16.95;;;;;;;-3.10;100.00;101738.72;5034023;28;20132;-78
2024/01/19 06:33:24;;;;;;;23.98;16.88;;;;;;;-2.82;100.00;101788.63;5034219;28;20156;-79
2024/01/19 06:35:50;;;;;;;23.27;16.98;;;;;;;-2.89;100.00;101795.31;5034205;28;20017;-79
2024/01/19 06:38:15;;;;;;;21.45;16.20;;;;;;;-2.98;100.00;101792.69;5033804;28;20485;-77
2024/01/19 06:40:40;;;;;;;20.33;16.17;;;;;;;-3.05;100.00;101798.53;5024805;28;20030;-78
2024/01/19 06:43:05;;;;;;;22.08;16.52;;;;;;;-3.26;100.00;101773.09;5014073;28;20108;-78
2024/01/19 06:45:31;;;;;;;26.05;17.05;;;;;;;-3.39;100.00;101764.56;5014153;28;20033;-77
2024/01/19 06:47:56;;;;;;;22.25;16.98;;;;;;;-3.23;100.00;101806.81;5014338;28;20477;-78
2024/01/19 06:50:22;;;;;;;26.30;18.42;;;;;;;-3.43;100.00;101777.16;5013794;28;20034;-77
2024/01/19 06:52:48;;;;;;;23.63;17.83;;;;;;;-3.31;100.00;101805.88;5014226;28;20382;-78
2024/01/19 06:55:13;;;;;;;23.23;17.88;;;;;;;-3.52;100.00;101781.28;5014218;28;20030;-77
2024/01/19 06:57:38;;;;;;;26.80;18.17;;;;;;;-3.41;100.00;101820.94;5013773;28;20038;-77
2024/01/19 07:00:05;;;;;;;22.88;18.10;;;;;;;-3.46;100.00;101825.94;5014024;28;20021;-78
2024/01/19 07:02:30;;;;;;;23.10;17.67;;;;;;;-3.52;100.00;101815.78;5013943;28;20045;-77
2024/01/19 07:04:55;;;;;;;24.10;18.23;;;;;;;-3.52;100.00;101829.25;5014197;28;20076;-77
2024/01/19 07:07:21;;;;;;;25.00;18.20;;;;;;;-3.53;100.00;101839.34;5013883;28;20030;-78
2024/01/19 07:09:46;;;;;;;23.40;17.45;;;;;;;-3.73;100.00;101807.97;5013710;28;20487;-77
2024/01/19 07:12:12;;;;;;;24.30;18.33;;;;;;;-3.67;100.00;101843.38;5013445;28;20029;-78
2024/01/19 07:14:37;;;;;;;27.02;18.30;;;;;;;-3.67;100.00;101855.97;4996204;28;20022;-78
2024/01/19 07:17:02;;;;;;;26.30;18.83;;;;;;;-3.69;100.00;101867.75;5013696;28;20030;-78
2024/01/19 07:19:28;;;;;;;24.90;19.05;;;;;;;-3.80;100.00;101848.28;5013685;28;20037;-77
2024/01/19 07:21:53;;;;;;;25.92;19.10;;;;;;;-3.73;100.00;101860.97;5013641;28;20026;-78
2024/01/19 07:24:19;;;;;;;25.42;20.00;;;;;;;-3.66;100.00;101862.72;5013543;28;20036;-78
2024/01/19 07:26:45;;;;;;;24.35;19.40;;;;;;;-3.67;100.00;101868.59;5011378;28;20512;-77
2024/01/19 07:29:10;;;;;;;26.85;19.98;;;;;;;-3.76;100.00;101849.16;5012888;28;20078;-78
2024/01/19 07:31:36;;;;;;;27.27;20.40;;;;;;;-3.80;100.00;101858.38;5013324;28;20474;-78
2024/01/19 07:34:03;;;;;;;29.20;20.77;;;;;;;-3.73;100.00;101883.69;5012980;28;20029;-79
2024/01/19 07:36:28;;;;;;;26.02;20.42;;;;;;;-3.76;100.00;101880.28;5013210;28;20426;-78
2024/01/19 07:38:54;;;;;;;25.77;20.50;;;;;;;-4.05;100.00;101826.91;5013098;28;20060;-78
2024/01/19 07:41:19;;;;;;;25.13;20.92;;;;;;;-3.76;100.00;101890.38;5011654;28;20460;-80
2024/01/19 07:46:20;;;;;;;32.97;21.25;;;;;;;-3.74;100.00;101892.91;5017081;26;20417;-77
2024/01/19 07:48:45;;;;;;;29.50;21.13;;;;;;;-3.94;100.00;101864.91;5032317;28;20025;-76
2024/01/19 07:51:11;;;;;;;26.67;20.42;;;;;;;-3.98;100.00;101872.41;5032559;28;20438;-77
2024/01/19 07:53:36;;;;;;;30.10;21.50;;;;;;;-3.79;100.00;101900.44;5033044;28;20105;-77
2024/01/19 07:56:01;;;;;;;28.38;22.10;;;;;;;-3.85;100.00;101891.94;5032778;28;20083;-78
2024/01/19 07:58:27;;;;;;;28.70;21.38;;;;;;;-3.79;100.00;101899.59;5032498;28;20473;-79
2024/01/19 08:00:53;;;;;;;29.77;21.38;;;;;;;-3.72;100.00;101910.63;5032860;28;20040;-79
2024/01/19 08:03:20;;;;;;;26.80;22.15;;;;;;;-3.73;100.00;101917.34;5032195;28;20124;-79
2024/01/19 08:05:45;;;;;;;30.25;23.08;;;;;;;-3.87;100.00;101883.50;5031031;28;20041;-78
2024/01/19 08:08:11;;;;;;;29.33;23.35;;;;;;;-3.66;100.00;101921.63;5032764;28;20021;-79
2024/01/19 08:10:37;;;;;;;32.17;24.40;;;;;;;-3.55;100.00;101922.59;5032512;28;20385;-79
2024/01/19 08:13:03;;;;;;;33.22;25.00;;;;;;;-3.63;100.00;101895.59;5032436;28;20037;-81
2024/01/19 08:15:28;;;;;;;35.13;25.98;;;;;;;-3.25;100.00;101924.66;5032242;28;20018;-76
2024/01/19 08:17:54;;;;;;;39.33;26.40;;;;;;;-3.15;100.00;101942.44;5032693;28;20435;-80
2024/01/19 08:20:19;;;;;;;39.65;26.35;;;;;;;-3.14;100.00;101941.63;5032754;28;20032;-80
2024/01/19 08:22:45;;;;;;;37.70;25.23;;;;;;;-3.21;100.00;101915.44;5032539;28;20116;-79
2024/01/19 08:25:10;;;;;;;35.50;26.00;;;;;;;-3.18;100.00;101926.41;5032490;28;20087;-79
2024/01/19 08:27:40;;;;;;;35.17;25.35;;;;;;;-3.11;100.00;101937.44;5032397;28;20410;-77
2024/01/19 08:30:06;;;;;;;40.38;26.48;;;;;;;-3.16;100.00;101916.31;5032336;28;20477;-79
2024/01/19 08:32:32;;;;;;;35.10;24.80;;;;;;;-3.05;100.00;101926.53;5032505;28;20033;-79
2024/01/19 08:34:57;;;;;;;32.65;24.48;;;;;;;-2.84;100.00;101941.09;5032443;28;20032;-80
2024/01/19 08:37:22;;;;;;;32.88;22.65;;;;;;;-2.67;100.00;101958.09;5032693;28;20030;-80
2024/01/19 08:39:48;;;;;;;34.05;23.23;;;;;;;-2.62;100.00;101961.53;5032517;28;20026;-77
2024/01/19 08:42:13;;;;;;;33.00;23.17;;;;;;;-2.56;100.00;101963.25;5031057;28;20030;-78
2024/01/19 08:44:43;;;;;;;29.75;22.83;;;;;;;-2.70;100.00;101934.50;5032383;28;20501;-80
2024/01/19 08:47:08;;;;;;;28.75;22.52;;;;;;;-2.56;100.00;101962.41;5032737;28;20691;-78
2024/01/19 08:49:34;;;;;;;31.08;21.33;;;;;;;-2.59;100.00;101965.78;5032554;28;20053;-80
2024/01/19 08:51:59;;;;;;;31.88;22.20;;;;;;;-2.73;100.00;101949.63;5032139;28;20425;-81
2024/01/19 08:54:27;;;;;;;26.77;20.85;;;;;;;-2.63;100.00;101974.19;5032085;28;20061;-79
2024/01/19 08:56:54;;;;;;;27.67;20.45;;;;;;;-2.70;100.00;101978.31;5032251;28;20024;-81
2024/01/19 08:59:19;;;;;;;28.70;20.42;;;;;;;-2.70;100.00;101980.00;5031765;28;20047;-81
2024/01/19 09:01:46;;;;;;;29.38;20.42;;;;;;;-2.72;100.00;101981.66;5032127;28;20469;-81
2024/01/19 09:04:11;;;;;;;27.35;21.02;;;;;;;-2.85;100.00;101969.72;5032295;28;20025;-79
2024/01/19 09:06:37;;;;;;;30.05;21.13;;;;;;;-2.70;100.00;101995.16;5032114;28;20051;-79
2024/01/19 09:09:03;;;;;;;25.88;19.55;;;;;;;-2.68;100.00;101994.34;5032089;28;20021;-79
2024/01/19 09:11:31;;;;;;;27.40;19.90;;;;;;;-2.69;100.00;101992.66;5031997;28;20120;-82
2024/01/19 09:13:56;;;;;;;27.92;19.80;;;;;;;-2.93;100.00;101959.56;5032653;28;20037;-81
2024/01/19 09:16:24;;;;;;;29.35;20.85;;;;;;;-2.97;100.00;101940.97;5017617;28;20038;-81
2024/01/19 09:18:52;;;;;;;26.65;20.75;;;;;;;-2.86;100.00;101958.75;5034774;28;20108;-82
2024/01/19 09:21:17;;;;;;;25.33;21.20;;;;;;;-2.48;100.00;102017.28;5036031;28;20025;-79
2024/01/19 09:23:43;;;;;;;25.80;20.65;;;;;;;-2.82;100.00;101957.97;5036303;28;20029;-80
2024/01/19 09:26:22;;;;;;;26.10;20.33;;;;;;;-2.68;100.00;101968.22;5035664;28;20041;-81
2024/01/19 09:28:48;;;;;;;28.13;20.88;;;;;;;-2.49;100.00;101995.38;5035204;28;20028;-80
2024/01/19 09:31:14;;;;;;;25.33;20.85;;;;;;;-2.55;100.00;101972.56;5034266;28;20128;-82
2024/01/19 09:33:40;;;;;;;27.88;20.75;;;;;;;-2.22;100.00;102025.13;5033545;28;20091;-77
2024/01/19 09:36:06;;;;;;;27.98;19.88;;;;;;;-2.44;100.00;101983.63;5035316;28;20021;-78
2024/01/19 09:38:34;;;;;;;25.90;20.35;;;;;;;-2.37;100.00;101992.94;5035351;28;20029;-81
2024/01/19 09:41:58;;;;;;;27.83;20.70;;;;;;;-2.12;100.00;102021.84;5034983;28;20477;-82
2024/01/19 09:44:28;;;;;;;25.60;20.05;;;;;;;-2.02;100.00;102026.16;4897548;29;20047;-80
2024/01/19 09:47:05;;;;;;;27.75;19.45;;;;;;;-1.96;100.00;102043.09;4896209;29;20080;-81
2024/01/19 09:49:50;;;;;;;24.98;20.17;;;;;;;-2.03;100.00;102023.63;4898055;29;20052;-81
2024/01/19 09:52:38;;;;;;;27.38;20.65;;;;;;;-2.08;100.00;102015.13;4897278;29;20084;-81
2024/01/19 09:55:03;;;;;;;25.60;20.73;;;;;;;-2.46;100.00;101949.91;4897721;29;20477;-81
2024/01/19 09:57:31;;;;;;;25.40;20.67;;;;;;;-1.84;100.00;102049.91;4898134;29;20020;-80
2024/01/19 09:59:57;;;;;;;27.10;21.83;;;;;;;-1.83;100.00;102065.13;4882130;29;20678;-81
2024/01/19 10:02:25;;;;;;;24.90;20.88;;;;;;;-1.88;100.00;102061.69;4897699;29;20123;-79
2024/01/19 10:04:53;;;;;;;25.58;21.17;;;;;;;-1.91;100.00;102054.06;4897732;29;20029;-79
2024/01/19 10:07:19;;;;;;;24.00;19.65;;;;;;;-1.89;100.00;102054.09;4897803;29;20425;-80
2024/01/19 10:09:50;;;;;;;23.30;19.48;;;;;;;-1.71;100.00;102079.56;4897679;29;20033;-79
2024/01/19 10:12:18;;;;;;;27.35;19.65;;;;;;;-1.76;100.00;102071.94;4897556;29;20033;-80
2024/01/19 10:14:43;;;;;;;25.48;19.02;;;;;;;-1.62;100.00;102088.91;4897468;29;20481;-80
2024/01/19 10:17:09;;;;;;;24.77;19.27;;;;;;;-1.65;100.00;102072.00;4897537;29;20115;-80
2024/01/19 10:19:35;;;;;;;24.50;19.70;;;;;;;-1.72;100.00;102057.59;4921203;28;20087;-79
2024/01/19 10:22:26;;;;;;;23.45;18.73;;;;;;;-1.50;100.00;102077.16;5034607;28;20045;-80
2024/01/19 10:25:18;;;;;;;21.88;18.15;;;;;;;-1.45;100.00;102078.06;5034152;28;20033;-81
2024/01/19 10:27:47;;;;;;;23.45;17.75;;;;;;;-1.41;100.00;102081.44;5030885;28;20065;-79
2024/01/19 10:30:35;;;;;;;22.25;17.65;;;;;;;-1.38;100.00;102081.47;5034525;28;20030;-82
2024/01/19 10:33:05;;;;;;;23.50;17.77;;;;;;;-1.37;100.00;102074.75;5013457;23;20054;-81
2024/01/19 10:35:31;;;;;;;23.33;18.02;;;;;;;-1.24;100.00;102087.47;4996901;28;20421;-81
2024/01/19 10:38:12;;;;;;;23.67;19.08;;;;;;;-1.20;100.00;102088.34;5014379;28;20030;-81
2024/01/19 10:40:37;;;;;;;28.67;18.95;;;;;;;-1.19;100.00;102085.81;5014618;28;20378;-84
2024/01/19 10:43:04;;;;;;;21.27;18.48;;;;;;;-1.23;100.00;102081.56;5014360;28;20018;-80
2024/01/19 10:45:31;;;;;;;22.88;18.75;;;;;;;-1.21;100.00;102084.94;5014252;28;20428;-78
2024/01/19 10:48:03;;;;;;;23.13;18.02;;;;;;;-1.36;100.00;102063.75;5014437;28;20058;-81
2024/01/19 10:50:30;;;;;;;24.90;17.75;;;;;;;-1.11;100.00;102097.69;5014289;28;20022;-81
2024/01/19 10:53:00;;;;;;;22.90;18.27;;;;;;;-1.09;100.00;102101.91;5013850;28;20476;-81
2024/01/19 10:56:04;;;;;;;26.70;18.42;;;;;;;-1.03;100.00;102096.03;5014453;28;20029;-81
2024/01/19 11:01:21;;;;;;;23.13;18.40;;;;;;;-1.08;100.00;102074.88;5235091;23;20056;-80
2024/01/19 11:03:46;;;;;;;26.48;18.75;;;;;;;-0.87;100.00;102101.19;5054086;28;20559;-83